sensor_id;sensor_type;location;lat;lon;timestamp;P1;durP1;ratioP1;P2;durP2;ratioP2
928;SDS011;451;47.988;7.842;2022-12-18T00:04:46;25.33;;;12.20;;
928;SDS011;451;47.988;7.842;2022-12-18T00:13:49;19.93;;;10.50;;
928;SDS011;451;47.988;7.842;2022-12-18T00:22:52;32.33;;;12.93;;
928;SDS011;451;47.988;7.842;2022-12-18T00:31:54;20.47;;;12.03;;
928;SDS011;451;47.988;7.842;2022-12-18T00:40:56;25.80;;;10.83;;
928;SDS011;451;47.988;7.842;2022-12-18T00:49:58;22.90;;;13.00;;
928;SDS011;451;47.988;7.842;2022-12-18T00:58:59;24.50;;;12.33;;
928;SDS011;451;47.988;7.842;2022-12-18T01:08:01;19.23;;;7.77;;
928;SDS011;451;47.988;7.842;2022-12-18T01:17:03;23.30;;;11.33;;
928;SDS011;451;47.988;7.842;2022-12-18T01:26:09;20.10;;;11.47;;
928;SDS011;451;47.988;7.842;2022-12-18T01:35:13;29.13;;;14.00;;
928;SDS011;451;47.988;7.842;2022-12-18T01:53:54;23.93;;;12.03;;
928;SDS011;451;47.988;7.842;2022-12-18T02:02:56;28.50;;;13.27;;
928;SDS011;451;47.988;7.842;2022-12-18T02:12:05;21.70;;;11.77;;
928;SDS011;451;47.988;7.842;2022-12-18T02:30:19;24.17;;;12.10;;
928;SDS011;451;47.988;7.842;2022-12-18T02:39:23;24.70;;;10.73;;
928;SDS011;451;47.988;7.842;2022-12-18T02:48:38;23.03;;;12.50;;
928;SDS011;451;47.988;7.842;2022-12-18T02:57:55;25.10;;;12.30;;
928;SDS011;451;47.988;7.842;2022-12-18T03:07:10;29.60;;;12.87;;
928;SDS011;451;47.988;7.842;2022-12-18T03:16:28;23.93;;;10.33;;
928;SDS011;451;47.988;7.842;2022-12-18T03:25:32;19.90;;;10.77;;
928;SDS011;451;47.988;7.842;2022-12-18T03:34:39;23.10;;;11.13;;
928;SDS011;451;47.988;7.842;2022-12-18T04:02:29;22.40;;;11.07;;
928;SDS011;451;47.988;7.842;2022-12-18T04:11:35;23.17;;;11.00;;
928;SDS011;451;47.988;7.842;2022-12-18T04:20:40;29.30;;;10.80;;
928;SDS011;451;47.988;7.842;2022-12-18T04:29:42;10.73;;;7.30;;
928;SDS011;451;47.988;7.842;2022-12-18T04:38:47;15.07;;;7.93;;
928;SDS011;451;47.988;7.842;2022-12-18T04:47:51;11.03;;;7.70;;
928;SDS011;451;47.988;7.842;2022-12-18T04:56:53;13.30;;;8.03;;
928;SDS011;451;47.988;7.842;2022-12-18T05:05:54;10.33;;;7.20;;
928;SDS011;451;47.988;7.842;2022-12-18T05:14:56;11.87;;;7.40;;
928;SDS011;451;47.988;7.842;2022-12-18T05:23:58;16.60;;;8.87;;
928;SDS011;451;47.988;7.842;2022-12-18T05:32:59;8.30;;;5.83;;
928;SDS011;451;47.988;7.842;2022-12-18T05:42:01;11.07;;;7.40;;
928;SDS011;451;47.988;7.842;2022-12-18T05:51:06;16.77;;;7.23;;
928;SDS011;451;47.988;7.842;2022-12-18T06:00:11;6.13;;;5.13;;
928;SDS011;451;47.988;7.842;2022-12-18T06:09:16;2.30;;;1.80;;
928;SDS011;451;47.988;7.842;2022-12-18T06:18:17;8.47;;;5.60;;
928;SDS011;451;47.988;7.842;2022-12-18T06:27:19;11.60;;;6.27;;
928;SDS011;451;47.988;7.842;2022-12-18T06:36:21;8.90;;;8.00;;
928;SDS011;451;47.988;7.842;2022-12-18T06:45:30;20.73;;;8.70;;
928;SDS011;451;47.988;7.842;2022-12-18T06:54:32;10.63;;;6.13;;
928;SDS011;451;47.988;7.842;2022-12-18T07:03:33;17.40;;;7.90;;
928;SDS011;451;47.988;7.842;2022-12-18T07:12:35;11.70;;;6.00;;
928;SDS011;451;47.988;7.842;2022-12-18T07:21:37;10.93;;;6.80;;
928;SDS011;451;47.988;7.842;2022-12-18T07:30:39;13.73;;;8.47;;
928;SDS011;451;47.988;7.842;2022-12-18T07:39:40;13.80;;;6.17;;
928;SDS011;451;47.988;7.842;2022-12-18T07:48:42;8.83;;;7.73;;
928;SDS011;451;47.988;7.842;2022-12-18T07:57:44;14.63;;;7.10;;
928;SDS011;451;47.988;7.842;2022-12-18T08:06:46;10.13;;;7.77;;
928;SDS011;451;47.988;7.842;2022-12-18T08:24:59;15.90;;;11.40;;
928;SDS011;451;47.988;7.842;2022-12-18T08:34:01;17.10;;;10.07;;
928;SDS011;451;47.988;7.842;2022-12-18T08:43:03;19.93;;;10.67;;
928;SDS011;451;47.988;7.842;2022-12-18T08:52:23;20.27;;;11.50;;
928;SDS011;451;47.988;7.842;2022-12-18T09:01:25;17.70;;;10.87;;
928;SDS011;451;47.988;7.842;2022-12-18T09:10:27;20.83;;;11.37;;
928;SDS011;451;47.988;7.842;2022-12-18T09:19:29;25.33;;;13.03;;
928;SDS011;451;47.988;7.842;2022-12-18T09:28:31;39.20;;;24.73;;
928;SDS011;451;47.988;7.842;2022-12-18T09:37:32;20.07;;;11.33;;
928;SDS011;451;47.988;7.842;2022-12-18T09:46:35;24.00;;;13.37;;
928;SDS011;451;47.988;7.842;2022-12-18T09:55:42;19.00;;;12.87;;
928;SDS011;451;47.988;7.842;2022-12-18T10:04:46;26.23;;;15.80;;
928;SDS011;451;47.988;7.842;2022-12-18T10:23:41;39.33;;;18.90;;
928;SDS011;451;47.988;7.842;2022-12-18T10:32:47;29.47;;;17.43;;
928;SDS011;451;47.988;7.842;2022-12-18T10:41:49;24.20;;;14.90;;
928;SDS011;451;47.988;7.842;2022-12-18T10:50:51;24.53;;;14.77;;
928;SDS011;451;47.988;7.842;2022-12-18T10:59:55;21.93;;;13.00;;
928;SDS011;451;47.988;7.842;2022-12-18T11:27:39;22.63;;;13.10;;
928;SDS011;451;47.988;7.842;2022-12-18T11:36:45;40.03;;;15.80;;
928;SDS011;451;47.988;7.842;2022-12-18T11:45:49;41.77;;;19.60;;
928;SDS011;451;47.988;7.842;2022-12-18T11:54:56;45.33;;;20.53;;
928;SDS011;451;47.988;7.842;2022-12-18T12:13:20;29.20;;;19.47;;
928;SDS011;451;47.988;7.842;2022-12-18T12:41:20;32.10;;;20.40;;
928;SDS011;451;47.988;7.842;2022-12-18T12:50:45;43.37;;;23.50;;
928;SDS011;451;47.988;7.842;2022-12-18T13:09:04;33.27;;;19.57;;
928;SDS011;451;47.988;7.842;2022-12-18T13:27:56;35.30;;;20.63;;
928;SDS011;451;47.988;7.842;2022-12-18T13:36:45;30.90;;;17.53;;
928;SDS011;451;47.988;7.842;2022-12-18T13:46:00;27.37;;;16.63;;
928;SDS011;451;47.988;7.842;2022-12-18T13:55:04;27.77;;;15.80;;
928;SDS011;451;47.988;7.842;2022-12-18T14:04:29;32.50;;;15.00;;
928;SDS011;451;47.988;7.842;2022-12-18T14:13:36;25.97;;;16.43;;
928;SDS011;451;47.988;7.842;2022-12-18T14:22:45;24.80;;;17.20;;
928;SDS011;451;47.988;7.842;2022-12-18T14:41:14;22.17;;;13.87;;
928;SDS011;451;47.988;7.842;2022-12-18T14:50:17;25.03;;;15.23;;
928;SDS011;451;47.988;7.842;2022-12-18T14:59:20;24.07;;;13.70;;
928;SDS011;451;47.988;7.842;2022-12-18T15:08:28;27.17;;;16.63;;
928;SDS011;451;47.988;7.842;2022-12-18T15:17:35;34.83;;;16.30;;
928;SDS011;451;47.988;7.842;2022-12-18T15:26:37;31.50;;;18.73;;
928;SDS011;451;47.988;7.842;2022-12-18T15:35:39;28.37;;;16.80;;
928;SDS011;451;47.988;7.842;2022-12-18T15:44:41;29.17;;;17.90;;
928;SDS011;451;47.988;7.842;2022-12-18T15:53:44;28.77;;;17.90;;
928;SDS011;451;47.988;7.842;2022-12-18T16:02:48;31.23;;;18.80;;
928;SDS011;451;47.988;7.842;2022-12-18T16:11:49;48.07;;;26.40;;
928;SDS011;451;47.988;7.842;2022-12-18T16:20:51;37.50;;;23.03;;
928;SDS011;451;47.988;7.842;2022-12-18T16:29:54;45.50;;;24.87;;
928;SDS011;451;47.988;7.842;2022-12-18T16:38:55;27.83;;;19.37;;
928;SDS011;451;47.988;7.842;2022-12-18T16:47:57;33.53;;;18.63;;
928;SDS011;451;47.988;7.842;2022-12-18T16:56:58;29.30;;;19.27;;
928;SDS011;451;47.988;7.842;2022-12-18T17:06:04;34.40;;;21.13;;
928;SDS011;451;47.988;7.842;2022-12-18T17:15:07;40.97;;;26.27;;
928;SDS011;451;47.988;7.842;2022-12-18T17:24:09;33.20;;;22.37;;
928;SDS011;451;47.988;7.842;2022-12-18T17:33:11;35.73;;;22.70;;
928;SDS011;451;47.988;7.842;2022-12-18T17:42:12;36.80;;;21.90;;
928;SDS011;451;47.988;7.842;2022-12-18T17:51:16;37.77;;;24.07;;
928;SDS011;451;47.988;7.842;2022-12-18T18:00:18;34.27;;;21.70;;
928;SDS011;451;47.988;7.842;2022-12-18T18:09:20;36.30;;;22.77;;
928;SDS011;451;47.988;7.842;2022-12-18T18:18:23;42.50;;;24.87;;
928;SDS011;451;47.988;7.842;2022-12-18T18:27:26;44.57;;;28.10;;
928;SDS011;451;47.988;7.842;2022-12-18T18:36:29;39.77;;;27.40;;
928;SDS011;451;47.988;7.842;2022-12-18T18:45:30;49.60;;;27.60;;
928;SDS011;451;47.988;7.842;2022-12-18T18:54:32;54.07;;;31.20;;
928;SDS011;451;47.988;7.842;2022-12-18T19:03:34;52.40;;;31.83;;
928;SDS011;451;47.988;7.842;2022-12-18T19:12:37;44.40;;;27.40;;
928;SDS011;451;47.988;7.842;2022-12-18T19:22:05;33.40;;;22.23;;
928;SDS011;451;47.988;7.842;2022-12-18T19:31:08;44.07;;;24.73;;
928;SDS011;451;47.988;7.842;2022-12-18T19:40:14;47.00;;;26.60;;
928;SDS011;451;47.988;7.842;2022-12-18T19:49:16;41.80;;;26.13;;
928;SDS011;451;47.988;7.842;2022-12-18T19:58:17;50.30;;;28.47;;
928;SDS011;451;47.988;7.842;2022-12-18T20:07:19;42.00;;;26.37;;
928;SDS011;451;47.988;7.842;2022-12-18T20:16:21;45.37;;;26.50;;
928;SDS011;451;47.988;7.842;2022-12-18T20:25:23;59.33;;;37.35;;
928;SDS011;451;47.988;7.842;2022-12-18T20:34:24;51.90;;;28.93;;
928;SDS011;451;47.988;7.842;2022-12-18T20:43:29;53.80;;;30.17;;
928;SDS011;451;47.988;7.842;2022-12-18T20:52:31;45.87;;;27.60;;
928;SDS011;451;47.988;7.842;2022-12-18T21:01:33;44.87;;;28.50;;
928;SDS011;451;47.988;7.842;2022-12-18T21:10:35;46.57;;;30.63;;
928;SDS011;451;47.988;7.842;2022-12-18T21:19:36;52.23;;;31.87;;
928;SDS011;451;47.988;7.842;2022-12-18T21:28:40;49.87;;;28.83;;
928;SDS011;451;47.988;7.842;2022-12-18T21:37:42;46.13;;;25.63;;
928;SDS011;451;47.988;7.842;2022-12-18T21:46:45;44.30;;;26.30;;
928;SDS011;451;47.988;7.842;2022-12-18T21:55:58;33.57;;;19.57;;
928;SDS011;451;47.988;7.842;2022-12-18T22:05:02;31.03;;;20.70;;
928;SDS011;451;47.988;7.842;2022-12-18T22:14:04;46.30;;;24.97;;
928;SDS011;451;47.988;7.842;2022-12-18T22:23:05;38.73;;;24.23;;
928;SDS011;451;47.988;7.842;2022-12-18T22:32:11;38.50;;;22.77;;
928;SDS011;451;47.988;7.842;2022-12-18T22:41:16;39.13;;;24.50;;
928;SDS011;451;47.988;7.842;2022-12-18T22:50:18;39.03;;;24.03;;
928;SDS011;451;47.988;7.842;2022-12-18T22:59:20;38.03;;;24.60;;
928;SDS011;451;47.988;7.842;2022-12-18T23:08:23;38.77;;;24.93;;
928;SDS011;451;47.988;7.842;2022-12-18T23:17:25;29.77;;;16.17;;
928;SDS011;451;47.988;7.842;2022-12-18T23:26:26;28.37;;;16.17;;
928;SDS011;451;47.988;7.842;2022-12-18T23:35:28;25.00;;;13.27;;
928;SDS011;451;47.988;7.842;2022-12-18T23:44:30;20.93;;;12.40;;
928;SDS011;451;47.988;7.842;2022-12-18T23:53:32;24.87;;;13.30;;
